Terminal Aerodrome Forecast
Issued by NWS

Home | Current Version | Previous Version | Text Only | Print | Product List | Glossary On
Versions: 1 2 3 4 5 6 7 8 9 10 11 12 13 14 15 16 17 18
236
FTUS42 KTAE 011122
TAFVLD
TAF
KVLD 011122Z 0112/0212 00000KT P6SM SKC
      TEMPO 0112/0113 2SM BR SCT003
     FM011300 17005KT P6SM SCT040 BKN250
     FM020000 15003KT P6SM SCT250=

USA.gov is the U.S. government's official web portal to all federal, state and local government web resources and services.